createdAt,value
2023-03-05T00:01:45.674Z,97.98
2023-03-05T00:04:47.038Z,98.23
2023-03-05T00:07:48.864Z,97.83
2023-03-05T00:11:01.172Z,97.66
2023-03-05T00:14:04.369Z,97.09
2023-03-05T00:17:05.806Z,98.91
2023-03-05T00:20:08.035Z,98.94
2023-03-05T00:23:09.418Z,98.64
2023-03-05T00:26:11.912Z,98.76
2023-03-05T00:29:18.296Z,97.84
2023-03-05T00:32:19.792Z,97.80
2023-03-05T00:35:21.209Z,97.91
2023-03-05T00:38:23.111Z,97.59
2023-03-05T00:41:25.301Z,97.11
2023-03-05T00:44:26.694Z,97.14
2023-03-05T00:47:28.332Z,97.58
2023-03-05T00:50:29.714Z,96.75
2023-03-05T00:53:31.349Z,95.40
2023-03-05T00:56:32.848Z,95.72
2023-03-05T00:59:34.216Z,96.33
2023-03-05T01:02:35.658Z,96.32
2023-03-05T01:05:37.149Z,95.55
2023-03-05T01:08:39.413Z,97.12
2023-03-05T01:11:40.858Z,97.30
2023-03-05T01:14:42.258Z,96.86
2023-03-05T01:17:43.634Z,96.30
2023-03-05T01:20:45.270Z,96.72
2023-03-05T01:23:46.749Z,97.27
2023-03-05T01:26:49.288Z,97.34
2023-03-05T01:29:50.713Z,96.72
2023-03-05T01:32:52.845Z,96.32
2023-03-05T01:35:54.312Z,95.77
2023-03-05T01:38:55.759Z,95.53
2023-03-05T01:41:57.177Z,95.16
2023-03-05T01:45:02.653Z,95.08
2023-03-05T01:48:04.334Z,94.95
2023-03-05T01:51:06.185Z,95.15
2023-03-05T01:54:11.005Z,95.04
2023-03-05T01:57:20.867Z,95.12
2023-03-05T02:00:27.617Z,94.50
2023-03-05T02:03:29.039Z,94.83
2023-03-05T02:06:31.147Z,95.14
2023-03-05T02:09:32.605Z,95.33
2023-03-05T02:12:34.552Z,95.09
2023-03-05T02:15:37.631Z,95.13
2023-03-05T02:18:39.027Z,94.85
2023-03-05T02:21:47.246Z,94.53
2023-03-05T02:24:49.843Z,94.40
2023-03-05T02:28:42.303Z,94.60
2023-03-05T02:31:43.750Z,94.75
2023-03-05T02:34:45.160Z,94.45
2023-03-05T02:37:46.996Z,93.98
2023-03-05T02:40:48.541Z,95.16
2023-03-05T02:48:38.753Z,95.05
2023-03-05T02:51:40.573Z,95.33
2023-03-05T02:54:42.861Z,95.46
2023-03-05T02:57:44.408Z,95.55
2023-03-05T03:00:46.865Z,94.77
2023-03-05T03:03:48.323Z,94.99
2023-03-05T03:06:49.742Z,95.07
2023-03-05T03:09:51.253Z,95.18
2023-03-05T03:12:52.676Z,94.55
2023-03-05T03:16:09.408Z,95.08
2023-03-05T03:19:11.061Z,95.67
2023-03-05T03:22:14.326Z,96.06
2023-03-05T03:25:18.027Z,96.32
2023-03-05T03:28:19.986Z,96.75
2023-03-05T03:31:21.895Z,97.19
2023-03-05T03:34:23.499Z,96.99
2023-03-05T03:37:24.918Z,97.21
2023-03-05T03:40:26.370Z,97.33
2023-03-05T03:43:27.763Z,98.11
2023-03-05T03:46:29.268Z,98.27
2023-03-05T03:49:30.672Z,98.40
2023-03-05T03:52:32.050Z,98.19
2023-03-05T03:55:34.397Z,97.59
2023-03-05T03:58:35.849Z,98.83
2023-03-05T04:01:37.338Z,99.34
2023-03-05T04:04:38.787Z,99.01
2023-03-05T04:07:40.188Z,98.77
2023-03-05T04:10:41.704Z,99.08
2023-03-05T04:13:43.121Z,98.74
2023-03-05T04:16:44.524Z,98.50
2023-03-05T04:19:45.958Z,97.64
2023-03-05T04:22:47.340Z,97.04
2023-03-05T04:25:48.844Z,96.88
2023-03-05T04:28:50.256Z,97.75
2023-03-05T04:31:51.723Z,98.00
2023-03-05T04:34:53.124Z,97.65
2023-03-05T04:37:54.511Z,97.38
2023-03-05T04:40:55.898Z,97.05
2023-03-05T04:43:57.290Z,97.12
2023-03-05T04:46:58.681Z,96.76
2023-03-05T04:50:00.249Z,96.86
2023-03-05T04:53:01.789Z,96.36
2023-03-05T04:56:03.457Z,96.03
2023-03-05T04:59:04.923Z,96.24
2023-03-05T05:02:06.452Z,97.13
2023-03-05T05:05:09.558Z,97.40
2023-03-05T05:08:11.090Z,96.80
2023-03-05T05:11:14.337Z,96.64
2023-03-05T05:14:15.757Z,96.82
2023-03-05T05:17:17.158Z,96.94
2023-03-05T05:20:18.717Z,97.17
2023-03-05T05:23:20.137Z,97.49
2023-03-05T05:26:21.582Z,97.10
2023-03-05T05:29:23.260Z,97.41
2023-03-05T05:32:25.456Z,97.87
2023-03-05T05:35:27.349Z,97.82
2023-03-05T05:38:28.795Z,97.80
2023-03-05T05:41:30.303Z,98.70
2023-03-05T05:44:33.426Z,96.37
2023-03-05T05:47:34.816Z,95.75
2023-03-05T05:50:38.779Z,95.64
2023-03-05T05:53:41.103Z,95.65
2023-03-05T05:56:42.543Z,96.32
2023-03-05T05:59:44.126Z,96.47
2023-03-05T06:02:45.643Z,96.18
2023-03-05T06:05:47.621Z,96.47
2023-03-05T06:08:50.037Z,97.04
2023-03-05T06:11:51.516Z,97.09
2023-03-05T06:14:53.805Z,97.05
2023-03-05T06:17:55.207Z,97.34
2023-03-05T06:20:58.682Z,97.87
2023-03-05T06:24:00.638Z,97.29
2023-03-05T06:27:02.039Z,97.32
2023-03-05T06:30:04.804Z,96.92
2023-03-05T06:33:06.859Z,97.00
2023-03-05T06:36:11.434Z,97.33
2023-03-05T06:39:12.879Z,97.38
2023-03-05T06:42:14.296Z,97.26
2023-03-05T06:45:15.687Z,96.66
2023-03-05T06:48:17.086Z,96.88
2023-03-05T06:51:24.697Z,96.44
2023-03-05T06:54:26.120Z,97.17
2023-03-05T06:57:27.508Z,97.70
2023-03-05T07:00:30.638Z,98.75
2023-03-05T07:03:32.077Z,98.19
2023-03-05T07:06:36.021Z,97.94
2023-03-05T07:09:42.789Z,97.53
2023-03-05T07:12:44.176Z,97.87
2023-03-05T07:15:45.669Z,98.48
2023-03-05T07:18:48.028Z,98.62
2023-03-05T07:21:49.424Z,98.71
2023-03-05T07:24:51.031Z,98.89
2023-03-05T07:27:52.406Z,97.29
2023-03-05T07:31:02.651Z,98.57
2023-03-05T07:34:04.294Z,99.55
2023-03-05T07:37:05.692Z,99.33
2023-03-05T07:40:07.828Z,100.00
2023-03-05T07:43:09.230Z,100.00
2023-03-05T07:46:13.848Z,99.83
2023-03-05T07:49:15.340Z,99.38
2023-03-05T07:52:17.520Z,98.62
2023-03-05T07:55:18.946Z,98.22
2023-03-05T07:58:20.379Z,98.67
2023-03-05T08:01:22.052Z,98.81
2023-03-05T08:04:23.750Z,98.31
2023-03-05T08:07:25.231Z,96.89
2023-03-05T08:10:26.795Z,96.71
2023-03-05T08:13:28.205Z,96.62
2023-03-05T08:16:29.798Z,96.13
2023-03-05T08:19:32.708Z,96.33
2023-03-05T08:22:34.984Z,95.44
2023-03-05T08:25:36.451Z,94.75
2023-03-05T08:28:38.025Z,94.83
2023-03-05T08:31:44.612Z,94.99
2023-03-05T08:34:46.599Z,93.50
2023-03-05T08:37:48.419Z,92.91
2023-03-05T08:40:49.820Z,93.23
2023-03-05T08:43:51.209Z,93.60
2023-03-05T08:46:52.681Z,93.48
2023-03-05T08:49:58.331Z,91.40
2023-03-05T08:53:00.106Z,91.38
2023-03-05T08:56:01.765Z,91.66
2023-03-05T08:59:04.292Z,92.52
2023-03-05T09:02:05.849Z,93.18
2023-03-05T09:05:07.808Z,92.99
2023-03-05T09:08:09.460Z,92.16
2023-03-05T09:11:13.076Z,92.23
2023-03-05T09:14:14.489Z,92.10
2023-03-05T09:17:15.885Z,93.47
2023-03-05T09:20:17.598Z,92.61
2023-03-05T09:23:19.346Z,91.93
2023-03-05T09:26:21.163Z,90.81
2023-03-05T09:29:22.706Z,91.12
2023-03-05T09:32:24.093Z,90.92
2023-03-05T09:35:25.495Z,90.89
2023-03-05T09:38:27.553Z,89.76
2023-03-05T09:41:52.021Z,90.22
2023-03-05T09:45:11.997Z,89.50
2023-03-05T09:48:24.420Z,88.95
2023-03-05T09:51:31.364Z,87.43
2023-03-05T09:54:40.762Z,88.75
2023-03-05T09:57:46.792Z,88.37
2023-03-05T10:00:56.865Z,89.04
2023-03-05T10:04:09.124Z,89.73
2023-03-05T10:07:29.830Z,89.44
2023-03-05T10:10:41.060Z,90.29
2023-03-05T10:13:45.243Z,88.26
2023-03-05T10:16:59.735Z,86.88
2023-03-05T10:20:25.482Z,86.87
2023-03-05T10:23:31.505Z,87.51
2023-03-05T10:26:44.338Z,87.66
2023-03-05T10:29:59.564Z,87.35
2023-03-05T10:33:14.738Z,86.60
2023-03-05T10:36:38.827Z,85.63
2023-03-05T10:39:49.950Z,84.91
2023-03-05T10:43:04.778Z,84.57
2023-03-05T10:46:15.870Z,83.91
2023-03-05T10:49:25.059Z,83.64
2023-03-05T10:52:37.978Z,79.42
2023-03-05T10:55:40.023Z,76.48
2023-03-05T10:58:41.431Z,75.02
2023-03-05T11:02:02.336Z,73.36
2023-03-05T11:05:05.246Z,73.18
2023-03-05T11:08:27.500Z,71.95
2023-03-05T11:11:31.356Z,72.39
2023-03-05T11:14:34.688Z,72.92
2023-03-05T11:17:43.086Z,70.97
2023-03-05T11:20:45.199Z,70.59
2023-03-05T11:24:06.168Z,70.81
2023-03-05T11:27:34.927Z,67.95
2023-03-05T11:30:37.309Z,67.56
2023-03-05T11:33:38.890Z,67.29
2023-03-05T11:36:43.219Z,67.32
2023-03-05T11:39:46.089Z,67.90
2023-03-05T11:42:55.403Z,66.31
2023-03-05T11:46:03.207Z,66.86
2023-03-05T11:49:07.039Z,66.99
2023-03-05T11:52:15.285Z,66.99
2023-03-05T11:55:28.160Z,64.21
2023-03-05T11:58:33.033Z,62.17
2023-03-05T12:01:43.849Z,62.07
2023-03-05T12:04:46.286Z,62.88
2023-03-05T12:07:52.618Z,62.08
2023-03-05T12:10:54.318Z,62.55
2023-03-05T12:14:20.171Z,61.99
2023-03-05T12:17:28.591Z,61.48
2023-03-05T12:20:47.798Z,61.35
2023-03-05T12:23:55.287Z,61.55
2023-03-05T12:27:07.797Z,61.86
2023-03-05T12:30:35.168Z,62.44
2023-03-05T12:33:39.617Z,61.48
2023-03-05T12:36:41.612Z,61.53
2023-03-05T12:39:47.622Z,61.30
2023-03-05T12:42:53.707Z,61.74
2023-03-05T12:46:29.303Z,61.13
2023-03-05T12:49:38.764Z,60.49
2023-03-05T12:52:45.603Z,59.95
2023-03-05T12:56:16.465Z,58.84
2023-03-05T12:59:22.342Z,58.87
2023-03-05T13:02:45.207Z,59.98
2023-03-05T13:05:53.181Z,60.42
2023-03-05T13:09:03.697Z,60.43
2023-03-05T13:12:13.270Z,60.28
2023-03-05T13:15:15.493Z,60.84
2023-03-05T13:18:25.849Z,60.84
2023-03-05T13:21:30.601Z,61.56
2023-03-05T13:24:32.049Z,62.12
2023-03-05T13:27:34.303Z,62.48
2023-03-05T13:30:35.782Z,62.32
2023-03-05T13:33:37.449Z,61.63
2023-03-05T13:36:39.961Z,61.21
2023-03-05T13:39:47.800Z,61.36
2023-03-05T13:42:50.070Z,58.99
2023-03-05T13:45:56.394Z,58.31
2023-03-05T13:49:17.197Z,57.79
2023-03-05T13:52:36.342Z,57.61
2023-03-05T13:55:38.621Z,57.28
2023-03-05T13:58:40.479Z,57.58
2023-03-05T14:01:44.416Z,58.08
2023-03-05T14:04:47.208Z,58.21
2023-03-05T14:07:50.850Z,57.86
2023-03-05T14:10:57.147Z,57.88
2023-03-05T14:14:06.566Z,58.02
2023-03-05T14:17:36.332Z,57.52
2023-03-05T14:20:39.913Z,57.22
2023-03-05T14:23:46.965Z,57.31
2023-03-05T14:26:56.395Z,57.37
2023-03-05T14:29:57.875Z,57.56
2023-03-05T14:33:00.560Z,57.63
2023-03-05T14:36:03.088Z,57.36
2023-03-05T14:39:04.990Z,57.42
2023-03-05T14:42:26.883Z,56.75
2023-03-05T14:45:31.153Z,57.70
2023-03-05T14:48:32.592Z,57.95
2023-03-05T14:51:39.040Z,57.94
2023-03-05T14:54:40.429Z,58.08
2023-03-05T14:57:42.105Z,58.66
2023-03-05T15:00:44.087Z,58.07
2023-03-05T15:03:45.513Z,58.13
2023-03-05T15:06:50.782Z,57.98
2023-03-05T15:09:52.380Z,58.14
2023-03-05T15:12:53.855Z,58.31
2023-03-05T15:15:55.695Z,58.51
2023-03-05T15:18:57.348Z,59.68
2023-03-05T15:21:58.869Z,58.90
2023-03-05T15:25:00.344Z,59.17
2023-03-05T15:28:02.109Z,58.84
2023-03-05T15:31:05.060Z,58.75
2023-03-05T15:34:06.823Z,58.71
2023-03-05T15:37:08.313Z,58.77
2023-03-05T15:40:10.336Z,59.47
2023-03-05T15:43:11.765Z,59.65
2023-03-05T15:46:13.271Z,60.22
2023-03-05T15:49:15.219Z,59.64
2023-03-05T15:52:16.666Z,59.40
2023-03-05T15:55:20.971Z,59.08
2023-03-05T15:58:22.463Z,58.92
2023-03-05T16:01:23.903Z,58.64
2023-03-05T16:04:25.372Z,59.42
2023-03-05T16:07:27.700Z,58.62
2023-03-05T16:10:30.400Z,58.88
2023-03-05T16:13:32.778Z,58.85
2023-03-05T16:16:36.243Z,59.15
2023-03-05T16:19:42.450Z,59.94
2023-03-05T16:22:44.438Z,59.79
2023-03-05T16:25:46.192Z,60.47
2023-03-05T16:28:47.577Z,61.37
2023-03-05T16:31:49.170Z,61.81
2023-03-05T16:34:50.656Z,62.24
2023-03-05T16:37:52.100Z,61.34
2023-03-05T16:41:07.205Z,61.78
2023-03-05T16:44:09.325Z,61.93
2023-03-05T16:47:12.182Z,62.38
2023-03-05T16:50:13.632Z,62.61
2023-03-05T16:53:15.031Z,61.56
2023-03-05T16:56:16.711Z,61.10
2023-03-05T16:59:18.142Z,61.86
2023-03-05T17:02:19.568Z,62.31
2023-03-05T17:05:20.995Z,61.74
2023-03-05T17:08:24.262Z,62.19
2023-03-05T17:11:25.845Z,61.05
2023-03-05T17:14:27.445Z,61.18
2023-03-05T17:17:28.913Z,60.06
2023-03-05T17:20:30.607Z,61.10
2023-03-05T17:23:36.972Z,61.44
2023-03-05T17:26:38.384Z,61.28
2023-03-05T17:29:39.911Z,61.33
2023-03-05T17:32:41.574Z,61.86
2023-03-05T17:35:47.191Z,61.94
2023-03-05T17:38:49.577Z,61.90
2023-03-05T17:41:51.002Z,62.56
2023-03-05T17:44:52.495Z,63.04
2023-03-05T17:47:54.260Z,62.20
2023-03-05T17:50:55.988Z,62.50
2023-03-05T17:53:58.619Z,62.90
2023-03-05T17:57:00.731Z,63.36
2023-03-05T18:00:03.541Z,63.62
2023-03-05T18:03:13.501Z,64.10
2023-03-05T18:06:15.829Z,64.36
2023-03-05T18:09:17.450Z,64.18
2023-03-05T18:12:18.826Z,64.18
2023-03-05T18:15:22.280Z,64.58
2023-03-05T18:18:23.687Z,64.52
2023-03-05T18:21:27.847Z,64.25
2023-03-05T18:24:29.230Z,64.98
2023-03-05T18:27:31.055Z,64.86
2023-03-05T18:30:33.218Z,65.00
2023-03-05T18:33:35.074Z,64.84
2023-03-05T18:36:36.515Z,64.56
2023-03-05T18:39:38.168Z,64.69
2023-03-05T18:42:39.554Z,65.38
2023-03-05T18:45:40.996Z,65.69
2023-03-05T18:48:42.732Z,65.30
2023-03-05T18:51:45.606Z,66.14
2023-03-05T18:54:47.098Z,66.60
2023-03-05T18:57:49.236Z,66.15
2023-03-05T19:00:51.802Z,66.69
2023-03-05T19:03:53.513Z,66.62
2023-03-05T19:06:54.913Z,67.38
2023-03-05T19:09:59.599Z,67.24
2023-03-05T19:13:18.569Z,67.54
2023-03-05T19:16:30.294Z,68.15
2023-03-05T19:19:31.692Z,68.32
2023-03-05T19:22:33.730Z,67.93
2023-03-05T19:25:36.554Z,68.06
2023-03-05T19:28:38.027Z,68.11
2023-03-05T19:31:39.533Z,68.16
2023-03-05T19:34:41.899Z,68.51
2023-03-05T19:37:45.772Z,68.39
2023-03-05T19:40:47.492Z,68.06
2023-03-05T19:43:50.032Z,68.43
2023-03-05T19:46:51.474Z,68.57
2023-03-05T19:49:52.880Z,68.73
2023-03-05T19:52:54.351Z,68.83
2023-03-05T19:55:56.449Z,68.97
2023-03-05T19:58:57.876Z,69.02
2023-03-05T20:01:59.398Z,68.97
2023-03-05T20:05:00.944Z,69.44
2023-03-05T20:08:02.686Z,69.78
2023-03-05T20:11:04.701Z,70.17
2023-03-05T20:14:07.297Z,70.95
2023-03-05T20:17:08.756Z,71.36
2023-03-05T20:20:13.097Z,71.45
2023-03-05T20:23:14.518Z,72.59
2023-03-05T20:26:16.432Z,71.23
2023-03-05T20:29:18.691Z,71.93
2023-03-05T20:32:20.295Z,71.88
2023-03-05T20:35:21.844Z,72.39
2023-03-05T20:38:25.277Z,72.59
2023-03-05T20:41:26.876Z,73.07
2023-03-05T20:44:28.349Z,73.19
2023-03-05T20:47:40.523Z,73.15
2023-03-05T20:50:42.136Z,73.40
2023-03-05T20:53:43.564Z,73.64
2023-03-05T20:56:45.161Z,74.27
2023-03-05T20:59:46.615Z,75.58
2023-03-05T21:02:50.988Z,75.91
2023-03-05T21:05:55.644Z,76.33
2023-03-05T21:08:57.197Z,76.86
2023-03-05T21:11:58.574Z,77.14
2023-03-05T21:15:00.282Z,77.88
2023-03-05T21:18:01.895Z,78.06
2023-03-05T21:21:03.753Z,77.75
2023-03-05T21:24:05.549Z,77.76
2023-03-05T21:27:06.938Z,77.88
2023-03-05T21:30:11.152Z,77.70
2023-03-05T21:33:22.969Z,78.20
2023-03-05T21:36:24.480Z,78.60
2023-03-05T21:39:25.876Z,79.29
2023-03-05T21:42:27.310Z,80.18
2023-03-05T21:45:30.186Z,79.82
2023-03-05T21:48:32.124Z,80.19
2023-03-05T21:51:40.485Z,80.30
2023-03-05T21:54:42.836Z,80.43
2023-03-05T21:57:45.120Z,79.39
2023-03-05T22:00:46.520Z,79.26
2023-03-05T22:03:49.359Z,79.50
2023-03-05T22:06:50.798Z,79.25
2023-03-05T22:09:56.360Z,79.22
2023-03-05T22:13:11.456Z,79.62
2023-03-05T22:16:21.310Z,79.55
2023-03-05T22:19:22.745Z,79.29
2023-03-05T22:22:24.126Z,79.52
2023-03-05T22:25:25.499Z,79.47
2023-03-05T22:28:27.592Z,79.68
2023-03-05T22:31:30.328Z,79.61
2023-03-05T22:34:31.738Z,80.76
2023-03-05T22:37:33.460Z,80.82
2023-03-05T22:40:36.889Z,80.79
2023-03-05T22:43:38.813Z,79.74
2023-03-05T22:46:40.244Z,80.70
2023-03-05T22:49:41.739Z,81.42
2023-03-05T22:52:43.286Z,82.26
2023-03-05T22:55:44.756Z,82.17
2023-03-05T22:58:46.196Z,82.49
2023-03-05T23:01:47.637Z,81.39
2023-03-05T23:04:53.195Z,82.32
2023-03-05T23:07:54.674Z,82.01
2023-03-05T23:10:56.090Z,82.48
2023-03-05T23:13:57.476Z,82.21
2023-03-05T23:16:58.862Z,82.27
2023-03-05T23:20:00.277Z,82.98
2023-03-05T23:23:02.148Z,82.71
2023-03-05T23:26:03.530Z,83.50
2023-03-05T23:29:04.929Z,83.64
2023-03-05T23:32:06.515Z,84.10
2023-03-05T23:35:10.494Z,84.17
2023-03-05T23:38:13.894Z,83.23
2023-03-05T23:41:15.353Z,83.61
2023-03-05T23:44:16.797Z,83.66
2023-03-05T23:47:18.176Z,84.51
2023-03-05T23:50:29.079Z,83.99
2023-03-05T23:53:32.740Z,84.45
2023-03-05T23:56:34.120Z,84.71
2023-03-05T23:59:36.010Z,84.82
